Center Groton, Connecticut
Current Conditions -  °F | °C
As of 10:56 AM on Saturday 22 Nov 2014 (Local Time) from KGON Reporting Station
Clear Clear  
Wind Chill: 29°   Ceiling: Unl
Heat Index: 38°   Visibility: 10mi
Dew Point: 20°   Wind: 17mph
Humidity: 48%   Direction: 240°WSW
Pressure: 30.37"   Gusts: 24mph
Location:  41.3595°N, 72.0439°W
Report Text: KGON 221556Z 24015G21KT 10SM CLR 03/M07 A3037 RMK AO2 PK WND 25026/1518 SLP285 T00331067
Loading
Personal Weather Stations






























Interactive Weather Map New forecast layout! Learn more

10-Day Weather Forecast

Advertisements
Track Severe Weather on mobile